Time;durP1;ratioP1;P1;durP2;ratioP2;P2;SDS_P1;SDS_P2;PMS_P1;PMS_P2;Temp;Humidity;BMP_temperature;BMP_pressure;BME280_temperature;BME280_humidity;BME280_pressure;Samples;Min_cycle;Max_cycle;Signal;HPM_P1;HPM_P2
2022/10/12 00:02:00;;;;;;;32.73;11.37;;;10.50;99.90;;;;;;4085421;29;20168;-93
2022/10/12 00:04:01;;;;;;;34.97;13.83;;;10.10;99.90;;;;;;4100984;28;20182;-95
2022/10/12 00:06:08;;;;;;;33.63;12.07;;;9.90;99.90;;;;;;4084361;29;20175;-92
2022/10/12 00:08:09;;;;;;;28.40;9.57;;;9.80;99.90;;;;;;4084935;29;20175;-94
2022/10/12 00:10:10;;;;;;;26.10;9.13;;;9.70;99.90;;;;;;4084924;28;20214;-93
2022/10/12 00:12:11;;;;;;;30.47;9.40;;;9.80;99.90;;;;;;4100764;28;20174;-93
2022/10/12 00:14:12;;;;;;;29.13;9.77;;;9.90;99.90;;;;;;4085226;28;20183;-93
2022/10/12 00:16:14;;;;;;;32.53;9.50;;;10.20;99.90;;;;;;4084983;29;20183;-94
2022/10/12 00:18:15;;;;;;;20.47;7.90;;;10.10;99.90;;;;;;4084879;28;20242;-94
2022/10/12 00:20:16;;;;;;;19.20;7.93;;;9.90;99.90;;;;;;4084522;28;20199;-94
2022/10/12 00:22:17;;;;;;;20.93;8.03;;;9.80;99.90;;;;;;4100532;28;20183;-93
2022/10/12 00:24:18;;;;;;;16.10;7.40;;;9.60;99.90;;;;;;4084869;29;20846;-94
2022/10/12 00:26:20;;;;;;;22.23;8.53;;;9.40;99.90;;;;;;4100732;28;20175;-94
2022/10/12 00:28:21;;;;;;;25.50;7.03;;;9.30;99.90;;;;;;4084844;29;20179;-95
2022/10/12 00:30:22;;;;;;;19.57;6.63;;;9.30;99.90;;;;;;4100770;28;20592;-95
2022/10/12 00:32:23;;;;;;;19.50;7.40;;;9.20;99.90;;;;;;4084831;29;20675;-94
2022/10/12 00:34:23;;;;;;;23.93;7.80;;;9.00;99.90;;;;;;4084922;28;20172;-96
2022/10/12 00:36:27;;;;;;;18.70;7.07;;;8.70;99.90;;;;;;4084843;29;20186;-92
2022/10/12 00:38:28;;;;;;;22.13;6.33;;;8.60;99.90;;;;;;4100669;28;20207;-93
2022/10/12 00:40:29;;;;;;;21.70;5.87;;;8.40;99.90;;;;;;4100451;28;20207;-93
2022/10/12 00:42:30;;;;;;;24.03;6.47;;;8.40;99.90;;;;;;4084398;29;20176;-94
2022/10/12 00:44:45;;;;;;;18.90;6.43;;;8.70;99.90;;;;;;4100476;28;20175;-94
2022/10/12 00:46:45;;;;;;;14.77;5.97;;;8.80;99.90;;;;;;4100526;28;20711;-95
2022/10/12 00:48:52;;;;;;;18.20;6.33;;;8.90;99.90;;;;;;4084644;28;20175;-94
2022/10/12 00:50:53;;;;;;;22.77;6.40;;;8.90;99.90;;;;;;4084569;28;20610;-92
2022/10/12 00:53:16;;;;;;;21.27;5.90;;;8.90;99.90;;;;;;4084304;28;20210;-94
2022/10/12 00:55:20;;;;;;;20.83;6.07;;;8.80;99.90;;;;;;4084650;28;20187;-92
2022/10/12 00:57:22;;;;;;;15.13;5.60;;;8.90;99.90;;;;;;4084506;28;20640;-94
2022/10/12 00:59:29;;;;;;;24.53;5.80;;;9.00;99.90;;;;;;4084616;28;20671;-93
2022/10/12 01:01:33;;;;;;;19.40;5.80;;;9.10;99.90;;;;;;4084124;28;20278;-92
2022/10/12 01:03:35;;;;;;;26.57;7.63;;;9.10;99.90;;;;;;4100143;28;20278;-93
2022/10/12 01:05:39;;;;;;;20.77;6.97;;;9.20;99.90;;;;;;4084353;29;20572;-93
2022/10/12 01:07:39;;;;;;;17.53;6.97;;;9.10;99.90;;;;;;4084246;28;20176;-93
2022/10/12 01:09:41;;;;;;;16.20;6.77;;;9.20;99.90;;;;;;4099933;28;20175;-92
2022/10/12 01:11:41;;;;;;;16.10;7.20;;;9.00;99.90;;;;;;4084284;28;20204;-93
2022/10/12 01:13:42;;;;;;;15.13;6.10;;;8.70;99.90;;;;;;4099977;28;20281;-92
2022/10/12 01:15:52;;;;;;;20.57;6.77;;;8.60;99.90;;;;;;4084271;29;20175;-93
2022/10/12 01:18:26;;;;;;;21.03;6.13;;;8.60;99.90;;;;;;4083264;28;20179;-93
2022/10/12 01:20:52;;;;;;;17.53;5.60;;;8.40;99.90;;;;;;4084183;29;20282;-92
2022/10/12 01:22:58;;;;;;;20.07;6.13;;;8.50;99.90;;;;;;4084123;29;20183;-93
2022/10/12 01:25:33;;;;;;;18.13;6.07;;;8.60;99.90;;;;;;4084142;29;20183;-92
2022/10/12 01:27:51;;;;;;;20.90;6.13;;;8.70;99.90;;;;;;4084157;29;20190;-96
2022/10/12 01:30:12;;;;;;;24.13;6.00;;;8.70;99.90;;;;;;4084118;28;20183;-95
2022/10/12 01:32:23;;;;;;;19.43;6.10;;;8.70;99.90;;;;;;4100085;28;20947;-96
2022/10/12 01:35:03;;;;;;;19.50;5.37;;;8.60;99.90;;;;;;4083996;28;20520;-94
2022/10/12 01:37:22;;;;;;;16.23;4.93;;;8.70;99.90;;;;;;4083762;29;20573;-95
2022/10/12 01:39:48;;;;;;;15.27;5.17;;;8.70;99.90;;;;;;4084273;28;20274;-92
2022/10/12 01:41:54;;;;;;;12.53;5.37;;;8.70;99.90;;;;;;4084089;28;20219;-93
2022/10/12 01:43:55;;;;;;;20.77;5.60;;;8.70;99.90;;;;;;4084138;29;20183;-94
2022/10/12 01:45:55;;;;;;;19.37;6.00;;;8.80;99.90;;;;;;4084040;29;20604;-93
2022/10/12 01:47:56;;;;;;;12.73;5.33;;;8.80;99.90;;;;;;4099972;28;20201;-93
2022/10/12 01:49:58;;;;;;;16.83;5.57;;;8.70;99.90;;;;;;4083847;29;20187;-94
2022/10/12 01:52:18;;;;;;;13.33;5.27;;;8.60;99.90;;;;;;4084073;29;20226;-91
2022/10/12 01:54:32;;;;;;;19.20;5.20;;;8.50;99.90;;;;;;4084146;28;20212;-93
2022/10/12 01:56:46;;;;;;;17.87;5.27;;;8.20;99.90;;;;;;4083841;28;20183;-94
2022/10/12 01:59:25;;;;;;;22.23;5.57;;;8.10;99.90;;;;;;4083989;28;20652;-94
2022/10/12 02:01:35;;;;;;;14.30;5.67;;;8.40;99.90;;;;;;4089721;28;20222;-94
2022/10/12 02:03:59;;;;;;;19.37;5.53;;;8.30;99.90;;;;;;4084027;28;20175;-94
2022/10/12 02:06:10;;;;;;;15.07;5.53;;;8.40;99.90;;;;;;4084095;28;20179;-94
2022/10/12 02:08:25;;;;;;;21.23;5.70;;;8.30;99.90;;;;;;4084009;28;20183;-95
2022/10/12 02:10:32;;;;;;;19.37;5.93;;;8.40;99.90;;;;;;4099592;28;20218;-94
2022/10/12 02:12:34;;;;;;;29.03;6.30;;;8.90;99.90;;;;;;4083459;28;20735;-94
2022/10/12 02:14:40;;;;;;;19.80;5.93;;;9.30;99.90;;;;;;4083109;28;20168;-96
2022/10/12 02:16:49;;;;;;;25.60;6.67;;;9.60;99.90;;;;;;4083082;28;20182;-92
2022/10/12 02:18:54;;;;;;;19.17;6.50;;;9.80;99.90;;;;;;4083168;28;20191;-94
2022/10/12 02:20:58;;;;;;;16.70;5.90;;;10.00;99.90;;;;;;4082758;28;20232;-94
2022/10/12 02:23:00;;;;;;;22.57;6.47;;;9.60;99.90;;;;;;4082851;28;20176;-92
2022/10/12 02:25:08;;;;;;;19.20;5.93;;;9.30;99.90;;;;;;4082923;28;20235;-95
2022/10/12 02:27:11;;;;;;;15.57;6.07;;;8.90;99.90;;;;;;4098727;28;20174;-93
2022/10/12 02:29:18;;;;;;;21.20;6.93;;;8.70;99.90;;;;;;4084133;28;20171;-94
2022/10/12 02:31:36;;;;;;;24.17;6.70;;;8.70;99.90;;;;;;4085342;28;20191;-95
2022/10/12 02:33:39;;;;;;;16.77;5.03;;;8.70;99.90;;;;;;4085481;29;20234;-94
2022/10/12 02:35:51;;;;;;;16.10;5.37;;;8.60;99.90;;;;;;4085540;29;20203;-94
2022/10/12 02:38:00;;;;;;;21.00;5.33;;;8.50;99.90;;;;;;4085860;28;20172;-92
2022/10/12 02:40:27;;;;;;;18.00;5.43;;;8.30;99.90;;;;;;4085655;28;20644;-93
2022/10/12 02:42:32;;;;;;;15.20;6.30;;;8.30;99.90;;;;;;4085557;28;20254;-93
2022/10/12 02:44:37;;;;;;;16.47;5.93;;;8.30;99.90;;;;;;4085755;28;20179;-94
2022/10/12 02:46:39;;;;;;;13.60;5.33;;;8.20;99.90;;;;;;4101252;28;20188;-93
2022/10/12 02:48:41;;;;;;;14.87;5.60;;;8.10;99.90;;;;;;4101133;28;20206;-92
2022/10/12 02:50:43;;;;;;;13.53;5.20;;;7.90;99.90;;;;;;4085578;28;20203;-95
2022/10/12 02:52:45;;;;;;;14.13;6.30;;;7.90;99.90;;;;;;4101362;28;20183;-92
2022/10/12 02:54:45;;;;;;;25.00;7.03;;;7.90;99.90;;;;;;4101080;28;20234;-92
2022/10/12 02:56:46;;;;;;;20.07;6.70;;;8.00;99.90;;;;;;4085268;28;20680;-94
2022/10/12 02:58:47;;;;;;;20.50;6.37;;;8.00;99.90;;;;;;4085318;29;20672;-92
2022/10/12 03:00:48;;;;;;;15.53;6.07;;;8.10;99.90;;;;;;4100973;28;20214;-92
2022/10/12 03:02:49;;;;;;;17.70;6.07;;;8.10;99.90;;;;;;4085304;28;20184;-93
2022/10/12 03:04:49;;;;;;;19.80;6.77;;;8.10;99.90;;;;;;4085212;29;20182;-92
2022/10/12 03:06:50;;;;;;;14.90;6.00;;;8.20;99.90;;;;;;4101048;28;20183;-94
2022/10/12 03:08:52;;;;;;;15.90;6.10;;;8.20;99.90;;;;;;4100992;28;20184;-94
2022/10/12 03:10:52;;;;;;;17.10;6.60;;;8.30;99.90;;;;;;4085094;28;20694;-93
2022/10/12 03:12:53;;;;;;;18.63;6.07;;;8.40;99.90;;;;;;4044015;29;1212959;-93
2022/10/12 03:14:54;;;;;;;17.97;6.87;;;8.40;99.90;;;;;;4085791;29;20311;-92
2022/10/12 03:16:55;;;;;;;21.00;6.67;;;8.50;99.90;;;;;;4101895;28;20600;-94
2022/10/12 03:18:56;;;;;;;18.63;6.50;;;8.60;99.90;;;;;;4101961;28;20175;-94
2022/10/12 03:20:56;;;;;;;24.87;6.37;;;8.60;99.90;;;;;;4085513;29;20223;-93
2022/10/12 03:22:57;;;;;;;22.90;6.63;;;8.70;99.90;;;;;;4101639;28;20326;-90
2022/10/12 03:24:59;;;;;;;14.40;6.10;;;8.60;99.90;;;;;;4085541;29;20183;-92
2022/10/12 03:26:59;;;;;;;15.83;6.10;;;8.50;99.90;;;;;;4086236;29;20175;-93
2022/10/12 03:29:00;;;;;;;19.87;6.50;;;8.50;99.90;;;;;;4088571;29;20184;-94
2022/10/12 03:31:01;;;;;;;15.70;6.40;;;8.50;99.90;;;;;;4088609;29;20199;-94
2022/10/12 03:33:02;;;;;;;17.57;5.73;;;8.50;99.90;;;;;;4088366;28;20564;-93
2022/10/12 03:35:03;;;;;;;16.67;6.07;;;8.60;99.90;;;;;;4088617;29;20179;-94
2022/10/12 03:37:04;;;;;;;17.33;5.80;;;8.60;99.90;;;;;;4088895;28;20172;-93
2022/10/12 03:39:05;;;;;;;15.40;5.63;;;8.60;99.90;;;;;;4088726;28;20198;-93
2022/10/12 03:41:06;;;;;;;13.97;5.97;;;8.50;99.90;;;;;;4087737;28;20711;-92
2022/10/12 03:43:07;;;;;;;10.83;5.27;;;8.40;99.90;;;;;;4089820;29;20179;-93
2022/10/12 03:45:08;;;;;;;15.20;5.90;;;8.20;99.90;;;;;;4090951;29;20270;-94
2022/10/12 03:47:09;;;;;;;14.33;5.50;;;8.10;99.90;;;;;;4110448;28;20230;-94
2022/10/12 03:49:10;;;;;;;18.37;5.53;;;8.00;99.90;;;;;;4118337;28;20580;-93
2022/10/12 03:51:11;;;;;;;18.77;5.47;;;7.90;99.90;;;;;;4102529;29;20191;-93
2022/10/12 03:53:11;;;;;;;14.27;6.10;;;7.70;99.90;;;;;;4100342;29;20172;-93
2022/10/12 03:55:13;;;;;;;16.43;6.10;;;7.60;99.90;;;;;;4114579;28;20198;-92
2022/10/12 03:57:13;;;;;;;13.27;5.57;;;7.60;99.90;;;;;;4096894;29;20183;-94
2022/10/12 03:59:14;;;;;;;19.73;6.90;;;7.60;99.90;;;;;;4106787;28;20214;-95
2022/10/12 04:01:15;;;;;;;21.00;6.43;;;7.60;99.90;;;;;;4085491;29;20215;-95
2022/10/12 04:03:15;;;;;;;15.57;5.87;;;7.40;99.90;;;;;;4085198;29;20179;-93
2022/10/12 04:05:16;;;;;;;17.57;6.07;;;7.40;99.90;;;;;;4101157;28;20183;-93
2022/10/12 04:07:17;;;;;;;15.50;5.90;;;7.60;99.90;;;;;;4085353;29;20628;-94
2022/10/12 04:09:18;;;;;;;21.87;6.63;;;7.70;99.90;;;;;;4101152;28;20197;-93
2022/10/12 04:11:19;;;;;;;12.83;5.77;;;7.80;99.90;;;;;;4085045;29;20196;-92
2022/10/12 04:13:20;;;;;;;17.97;5.83;;;7.80;99.90;;;;;;4085699;29;20226;-93
2022/10/12 04:15:20;;;;;;;17.00;5.70;;;7.80;99.90;;;;;;4085079;29;20179;-92
2022/10/12 04:17:21;;;;;;;21.63;6.40;;;7.70;99.90;;;;;;4085172;29;20172;-95
2022/10/12 04:19:22;;;;;;;19.50;5.60;;;7.70;99.90;;;;;;4085015;29;20164;-95
2022/10/12 04:21:24;;;;;;;17.20;5.93;;;7.70;99.90;;;;;;4084808;28;20262;-93
2022/10/12 04:23:25;;;;;;;18.33;6.20;;;7.80;99.90;;;;;;4100776;28;20183;-92
2022/10/12 04:25:26;;;;;;;22.43;6.50;;;7.80;99.90;;;;;;4100594;28;20175;-92
2022/10/12 04:27:27;;;;;;;18.67;6.40;;;7.90;99.90;;;;;;4084785;29;20180;-94
2022/10/12 04:29:27;;;;;;;15.10;6.07;;;8.00;99.90;;;;;;4100478;28;20178;-93
2022/10/12 04:31:29;;;;;;;12.93;5.83;;;7.90;99.90;;;;;;4100642;28;20194;-92
2022/10/12 04:33:30;;;;;;;13.70;5.63;;;7.80;99.90;;;;;;4100807;28;20183;-93
2022/10/12 04:35:31;;;;;;;14.10;5.70;;;7.70;99.90;;;;;;4084838;28;20652;-93
2022/10/12 04:37:31;;;;;;;19.53;6.57;;;7.60;99.90;;;;;;4084764;29;20278;-93
2022/10/12 04:39:32;;;;;;;23.60;6.60;;;7.50;99.90;;;;;;4084674;28;20199;-94
2022/10/12 04:41:33;;;;;;;17.53;6.70;;;7.40;99.90;;;;;;4100345;28;20222;-94
2022/10/12 04:43:34;;;;;;;14.37;6.37;;;7.40;99.90;;;;;;4100543;28;20179;-95
2022/10/12 04:45:35;;;;;;;24.50;7.37;;;7.40;99.90;;;;;;4100599;28;20233;-95
2022/10/12 04:47:35;;;;;;;21.33;6.33;;;7.50;99.90;;;;;;4084705;29;20664;-92
2022/10/12 04:49:36;;;;;;;25.07;7.30;;;7.60;99.90;;;;;;4100534;28;20210;-94
2022/10/12 04:51:37;;;;;;;16.97;6.63;;;7.60;99.90;;;;;;4084287;29;20227;-91
2022/10/12 04:53:38;;;;;;;22.73;7.73;;;7.60;99.90;;;;;;4084827;29;20307;-92
2022/10/12 04:55:39;;;;;;;17.77;6.90;;;7.60;99.90;;;;;;4100512;28;20501;-94
2022/10/12 04:57:40;;;;;;;17.60;6.47;;;7.70;99.90;;;;;;4084420;29;20219;-92
2022/10/12 04:59:40;;;;;;;15.20;6.57;;;7.70;99.90;;;;;;4100757;28;20905;-92
2022/10/12 05:01:41;;;;;;;17.10;6.67;;;7.50;99.90;;;;;;4084622;29;20222;-93
2022/10/12 05:03:42;;;;;;;27.27;7.87;;;7.50;99.90;;;;;;4084416;29;20184;-93
2022/10/12 05:05:44;;;;;;;22.57;7.23;;;7.50;99.90;;;;;;4100281;28;20707;-92
2022/10/12 05:07:44;;;;;;;22.00;7.37;;;7.40;99.90;;;;;;4084286;29;20218;-94
2022/10/12 05:09:45;;;;;;;20.97;7.30;;;7.40;99.90;;;;;;4100218;28;20175;-92
2022/10/12 05:11:47;;;;;;;22.77;8.17;;;7.40;99.90;;;;;;4084372;29;20176;-91
2022/10/12 05:13:47;;;;;;;30.43;7.50;;;7.40;99.90;;;;;;4084300;28;20202;-95
2022/10/12 05:15:48;;;;;;;19.83;7.67;;;7.50;99.90;;;;;;4100162;28;20628;-95
2022/10/12 05:17:49;;;;;;;18.83;7.17;;;7.50;99.90;;;;;;4084244;29;20270;-93
2022/10/12 05:19:50;;;;;;;20.50;7.63;;;7.50;99.90;;;;;;4100032;28;20230;-94
2022/10/12 05:21:52;;;;;;;14.90;7.17;;;7.50;99.90;;;;;;4084287;29;20211;-93
2022/10/12 05:23:53;;;;;;;15.67;7.13;;;7.50;99.90;;;;;;4084481;29;20230;-93
2022/10/12 05:25:55;;;;;;;24.10;7.63;;;7.50;99.90;;;;;;4084333;29;20274;-93
2022/10/12 05:27:56;;;;;;;27.57;7.23;;;7.60;99.90;;;;;;4099936;28;20178;-93
2022/10/12 05:29:56;;;;;;;17.50;7.40;;;7.60;99.90;;;;;;4084297;28;20172;-93
2022/10/12 05:31:57;;;;;;;23.00;7.67;;;7.60;99.90;;;;;;4084437;29;20517;-90
2022/10/12 05:33:58;;;;;;;19.57;8.00;;;7.60;99.90;;;;;;4084085;28;20194;-93
2022/10/12 05:35:58;;;;;;;20.40;7.47;;;7.60;99.90;;;;;;4084050;29;20242;-94
2022/10/12 05:37:59;;;;;;;18.33;7.57;;;7.60;99.90;;;;;;4084218;29;20171;-91
2022/10/12 05:40:00;;;;;;;30.00;8.53;;;7.60;99.90;;;;;;4099922;28;20190;-94
2022/10/12 05:42:01;;;;;;;26.20;7.83;;;7.60;99.90;;;;;;4083723;29;20223;-92
2022/10/12 05:44:01;;;;;;;25.83;7.97;;;7.60;99.90;;;;;;4099597;28;20234;-94
2022/10/12 05:46:02;;;;;;;20.63;8.30;;;7.60;99.90;;;;;;4084085;29;20526;-94
2022/10/12 05:48:03;;;;;;;23.93;7.90;;;7.60;99.90;;;;;;4100063;28;20753;-92
2022/10/12 05:50:04;;;;;;;28.47;7.80;;;7.60;99.90;;;;;;4084216;29;20656;-92
2022/10/12 05:52:05;;;;;;;19.43;7.70;;;7.60;99.90;;;;;;4099901;28;20206;-90
2022/10/12 05:54:05;;;;;;;28.97;7.77;;;7.60;99.90;;;;;;4099580;28;20171;-90
2022/10/12 05:56:06;;;;;;;26.27;8.20;;;7.60;99.90;;;;;;4099602;28;20595;-91
2022/10/12 05:58:07;;;;;;;25.70;8.07;;;7.50;99.90;;;;;;4084025;28;20640;-94
2022/10/12 06:00:09;;;;;;;27.67;8.47;;;7.50;99.90;;;;;;4083938;29;20204;-91
2022/10/12 06:02:14;;;;;;;25.83;8.63;;;7.50;99.90;;;;;;4099645;28;20226;-94
2022/10/12 06:04:15;;;;;;;23.63;8.50;;;7.50;99.90;;;;;;4084919;29;20182;-92
2022/10/12 06:06:16;;;;;;;22.23;8.63;;;7.50;99.90;;;;;;4087193;29;20180;-93
2022/10/12 06:08:17;;;;;;;21.23;7.97;;;7.50;99.90;;;;;;4103123;28;20565;-91
2022/10/12 06:10:17;;;;;;;24.53;8.57;;;7.50;99.90;;;;;;4087152;29;20204;-90
2022/10/12 06:12:19;;;;;;;33.73;8.40;;;7.50;99.90;;;;;;4102899;28;20179;-93
2022/10/12 06:14:25;;;;;;;24.53;8.47;;;7.60;99.90;;;;;;4087889;28;20190;-91
2022/10/12 06:16:25;;;;;;;28.53;12.87;;;7.60;99.90;;;;;;4087409;29;20640;-91
2022/10/12 06:18:26;;;;;;;28.67;10.67;;;7.70;99.90;;;;;;4088471;29;20183;-89
2022/10/12 06:20:27;;;;;;;29.43;11.77;;;7.70;99.90;;;;;;4086895;29;20344;-90
2022/10/12 06:22:28;;;;;;;25.83;8.13;;;7.90;99.90;;;;;;4086726;29;20290;-92
2022/10/12 06:24:28;;;;;;;17.50;7.90;;;8.20;99.90;;;;;;4103356;28;20663;-90
2022/10/12 06:26:29;;;;;;;17.90;7.50;;;8.70;99.90;;;;;;4102926;28;20179;-89
2022/10/12 06:28:30;;;;;;;21.63;10.63;;;9.00;99.90;;;;;;4086803;29;20668;-93
2022/10/12 06:30:31;;;;;;;23.20;8.07;;;9.30;99.90;;;;;;4102674;28;20723;-91
2022/10/12 06:32:32;;;;;;;18.07;7.13;;;9.60;99.90;;;;;;4086801;29;20172;-94
2022/10/12 06:34:33;;;;;;;18.17;6.77;;;10.00;99.90;;;;;;4087082;29;20668;-91
2022/10/12 06:36:33;;;;;;;15.03;5.73;;;10.40;99.90;;;;;;4102475;28;20179;-91
2022/10/12 06:38:35;;;;;;;10.60;5.40;;;10.80;99.90;;;;;;4086682;29;20619;-91
2022/10/12 06:40:35;;;;;;;18.57;6.00;;;11.00;99.90;;;;;;4086485;29;20302;-90
2022/10/12 06:42:36;;;;;;;19.90;6.22;;;11.40;99.90;;;;;;4086634;29;20179;-91
2022/10/12 06:44:39;;;;;;;15.40;5.78;;;11.90;99.90;;;;;;4086801;29;20180;-93
2022/10/12 06:46:40;;;;;;;18.58;6.22;;;12.50;99.90;;;;;;4086358;29;20186;-91
2022/10/12 06:48:41;;;;;;;18.80;6.40;;;13.00;99.90;;;;;;4086100;29;20184;-93
2022/10/12 06:50:41;;;;;;;18.20;6.50;;;13.30;99.90;;;;;;4085997;29;20601;-90
2022/10/12 06:52:42;;;;;;;13.05;5.90;;;13.20;99.90;;;;;;4086144;29;20179;-90
2022/10/12 06:54:43;;;;;;;21.08;6.55;;;13.10;99.90;;;;;;4086425;29;20183;-90
2022/10/12 06:56:43;;;;;;;21.42;6.35;;;12.90;99.90;;;;;;4102018;28;20684;-90
2022/10/12 06:58:44;;;;;;;14.70;6.30;;;12.60;99.90;;;;;;4085983;29;20707;-91
2022/10/12 07:00:45;;;;;;;22.00;6.45;;;12.30;99.90;;;;;;4086195;29;20211;-91
2022/10/12 07:02:49;;;;;;;23.73;7.55;;;12.00;99.90;;;;;;4101783;28;20257;-91
2022/10/12 07:04:50;;;;;;;17.77;7.60;;;11.80;99.90;;;;;;4086170;28;20176;-91
2022/10/12 07:06:51;;;;;;;14.77;6.65;;;11.70;99.90;;;;;;4102069;28;20175;-93
2022/10/12 07:08:53;;;;;;;16.85;7.22;;;11.60;99.90;;;;;;4086362;29;20168;-90
2022/10/12 07:11:02;;;;;;;20.65;6.90;;;11.50;99.90;;;;;;4085886;28;20636;-90
2022/10/12 07:13:03;;;;;;;18.30;7.85;;;11.60;99.90;;;;;;4085735;28;20219;-92
2022/10/12 07:15:05;;;;;;;20.45;7.28;;;11.50;99.90;;;;;;4085798;29;20238;-91
2022/10/12 07:17:06;;;;;;;18.73;6.80;;;11.40;99.90;;;;;;4085875;29;20187;-91
2022/10/12 07:19:07;;;;;;;15.32;6.45;;;11.20;99.90;;;;;;4101712;28;20174;-93
2022/10/12 07:21:07;;;;;;;20.05;7.47;;;11.20;99.90;;;;;;4085586;29;20250;-90
2022/10/12 07:23:08;;;;;;;18.35;7.35;;;11.30;99.90;;;;;;4086023;29;20207;-95
2022/10/12 07:25:09;;;;;;;18.10;7.00;;;11.40;99.90;;;;;;4101660;28;20204;-91
2022/10/12 07:27:10;;;;;;;25.00;7.32;;;11.60;99.90;;;;;;4085719;29;20267;-90
2022/10/12 07:29:10;;;;;;;18.23;7.40;;;11.80;99.90;;;;;;4101552;28;20171;-94
2022/10/12 07:31:11;;;;;;;17.42;7.60;;;11.90;99.90;;;;;;4085938;28;20537;-91
2022/10/12 07:33:12;;;;;;;17.10;6.78;;;12.00;99.90;;;;;;4085758;29;20222;-92
2022/10/12 07:35:13;;;;;;;21.52;8.07;;;12.00;99.90;;;;;;4085778;28;20262;-93
2022/10/12 07:37:14;;;;;;;18.45;7.10;;;11.90;99.90;;;;;;4085445;28;20176;-93
2022/10/12 07:39:15;;;;;;;26.35;6.93;;;11.70;99.90;;;;;;4085398;29;20188;-90
2022/10/12 07:41:16;;;;;;;17.40;7.13;;;11.80;99.90;;;;;;4101095;28;20655;-90
2022/10/12 07:43:17;;;;;;;24.60;7.05;;;11.80;99.90;;;;;;4085673;29;20176;-95
2022/10/12 07:45:17;;;;;;;21.02;7.05;;;11.70;99.90;;;;;;4101604;28;20182;-90
2022/10/12 07:47:18;;;;;;;17.25;7.72;;;11.60;99.90;;;;;;4086643;29;20172;-93
2022/10/12 07:49:19;;;;;;;18.85;7.40;;;11.80;99.90;;;;;;4095378;28;20179;-89
2022/10/12 07:51:20;;;;;;;17.67;7.18;;;12.00;99.90;;;;;;4114124;28;20198;-91
2022/10/12 07:53:21;;;;;;;25.10;7.18;;;12.10;99.90;;;;;;4085650;29;20183;-91
2022/10/12 07:55:21;;;;;;;18.15;6.85;;;12.30;99.90;;;;;;4085486;29;20226;-91
2022/10/12 07:57:22;;;;;;;20.88;7.18;;;12.40;99.90;;;;;;4085233;29;20189;-93
2022/10/12 07:59:23;;;;;;;18.75;6.72;;;12.70;99.90;;;;;;4101203;28;20178;-90
2022/10/12 08:01:28;;;;;;;19.88;6.60;;;13.10;99.90;;;;;;4101125;28;20211;-91
2022/10/12 08:03:29;;;;;;;18.35;6.50;;;13.70;99.90;;;;;;4085518;28;20613;-94
2022/10/12 08:05:30;;;;;;;16.08;5.85;;;14.10;99.90;;;;;;4085457;28;20183;-94
2022/10/12 08:07:30;;;;;;;19.70;5.95;;;14.50;99.90;;;;;;4085073;28;20302;-91
2022/10/12 08:09:31;;;;;;;14.93;5.95;;;14.60;99.90;;;;;;4085007;28;20271;-90
2022/10/12 08:11:37;;;;;;;15.77;6.45;;;15.00;99.90;;;;;;4084992;29;20229;-90
2022/10/12 08:13:38;;;;;;;15.05;5.72;;;15.50;99.90;;;;;;4084963;29;20195;-91
2022/10/12 08:15:39;;;;;;;19.52;5.90;;;15.70;99.90;;;;;;4085161;29;20204;-90
2022/10/12 08:17:40;;;;;;;17.08;5.60;;;16.00;99.90;;;;;;4100769;28;20658;-92
2022/10/12 08:19:41;;;;;;;16.73;5.82;;;16.40;99.90;;;;;;4084798;28;20692;-88
2022/10/12 08:21:42;;;;;;;14.38;5.47;;;16.80;99.90;;;;;;4100750;28;20217;-90
2022/10/12 08:23:44;;;;;;;19.75;5.30;;;16.70;99.90;;;;;;4100938;28;20167;-88
2022/10/12 08:25:55;;;;;;;11.13;4.90;;;17.10;99.90;;;;;;4100853;28;20186;-88
2022/10/12 08:27:57;;;;;;;11.63;4.47;;;17.30;99.90;;;;;;4084322;28;20628;-88
2022/10/12 08:29:58;;;;;;;17.60;4.28;;;16.80;99.90;;;;;;4084942;28;20175;-87
2022/10/12 08:32:00;;;;;;;11.25;4.43;;;17.30;99.90;;;;;;4101010;28;20214;-89
2022/10/12 08:34:01;;;;;;;13.82;4.72;;;17.40;99.90;;;;;;4084965;29;20258;-93
2022/10/12 08:36:04;;;;;;;15.55;5.03;;;17.00;99.90;;;;;;4084831;28;20266;-89
2022/10/12 08:38:06;;;;;;;10.20;4.53;;;17.00;99.90;;;;;;4100668;28;20175;-88
2022/10/12 08:40:09;;;;;;;19.75;4.40;;;17.20;99.90;;;;;;4100560;28;20234;-92
2022/10/12 08:42:39;;;;;;;15.75;4.68;;;17.40;99.90;;;;;;4100507;28;20215;-93
2022/10/12 08:44:55;;;;;;;13.52;4.47;;;16.90;99.90;;;;;;4084745;28;20176;-94
2022/10/12 08:47:20;;;;;;;14.18;4.20;;;16.30;99.90;;;;;;4084884;29;20180;-89
2022/10/12 08:49:25;;;;;;;9.80;4.47;;;16.90;99.90;;;;;;4100787;28;20909;-92
2022/10/12 08:51:29;;;;;;;15.00;4.55;;;17.20;99.90;;;;;;4084551;28;20274;-88
2022/10/12 08:53:45;;;;;;;10.30;3.85;;;17.70;99.90;;;;;;4100299;28;20218;-88
2022/10/12 08:55:46;;;;;;;17.58;7.18;;;18.20;99.90;;;;;;4100177;28;20652;-89
2022/10/12 08:57:47;;;;;;;12.90;5.30;;;18.60;99.90;;;;;;4084195;29;20172;-89
2022/10/12 08:59:48;;;;;;;13.75;4.20;;;18.40;99.90;;;;;;4084150;29;20249;-92
2022/10/12 09:01:57;;;;;;;16.75;4.10;;;18.20;99.90;;;;;;4084563;29;20211;-89
2022/10/12 09:04:30;;;;;;;11.45;4.43;;;18.10;99.90;;;;;;4100486;29;20766;-92
2022/10/12 09:06:45;;;;;;;15.02;4.93;;;18.20;99.90;;;;;;4100192;28;20182;-88
2022/10/12 09:08:59;;;;;;;19.13;4.55;;;18.70;99.90;;;;;;4084445;28;20659;-89
2022/10/12 09:11:00;;;;;;;14.52;4.45;;;18.90;99.90;;;;;;4084363;29;20277;-88
2022/10/12 09:13:18;;;;;;;15.10;4.78;;;18.30;99.90;;;;;;4099900;28;20187;-91
2022/10/12 09:15:29;;;;;;;13.32;4.25;;;18.80;99.90;;;;;;4084154;29;20271;-89
2022/10/12 09:17:42;;;;;;;8.52;4.07;;;19.40;99.90;;;;;;4083985;28;20297;-92
2022/10/12 09:19:43;;;;;;;11.93;4.20;;;18.80;99.90;;;;;;4084038;28;20174;-90
2022/10/12 09:21:47;;;;;;;11.00;3.92;;;19.60;99.90;;;;;;4100147;28;20225;-89
2022/10/12 09:23:48;;;;;;;12.18;4.28;;;19.70;99.90;;;;;;4084286;29;20544;-92
2022/10/12 09:25:49;;;;;;;13.48;4.22;;;18.80;99.90;;;;;;4084378;28;20207;-91
2022/10/12 09:27:50;;;;;;;13.25;4.47;;;18.20;99.90;;;;;;4099945;28;20185;-90
2022/10/12 09:29:57;;;;;;;11.73;4.15;;;17.40;99.90;;;;;;4084188;28;20215;-89
2022/10/12 09:32:16;;;;;;;11.05;4.10;;;17.20;99.90;;;;;;4084286;28;20199;-88
2022/10/12 09:34:18;;;;;;;12.68;4.35;;;17.20;99.90;;;;;;4084135;29;20564;-88
2022/10/12 09:36:21;;;;;;;9.38;4.10;;;16.70;99.90;;;;;;4084152;29;20567;-89
2022/10/12 09:38:23;;;;;;;10.90;4.85;;;16.20;99.90;;;;;;4084073;28;20183;-89
2022/10/12 09:40:32;;;;;;;17.30;4.93;;;16.10;99.90;;;;;;4087115;28;20195;-88
2022/10/12 09:42:33;;;;;;;16.20;4.90;;;16.20;99.90;;;;;;4087336;28;20191;-88
2022/10/12 09:44:42;;;;;;;17.65;4.88;;;16.20;99.90;;;;;;4103268;28;20210;-89
2022/10/12 09:46:48;;;;;;;14.60;5.22;;;16.10;99.90;;;;;;4087349;28;20178;-89
2022/10/12 09:48:57;;;;;;;13.57;4.68;;;16.00;99.90;;;;;;4087378;28;20186;-89
2022/10/12 09:51:01;;;;;;;14.70;4.72;;;16.10;99.90;;;;;;4087074;28;20583;-90
2022/10/12 09:53:10;;;;;;;10.80;4.07;;;15.80;99.90;;;;;;4087264;28;20270;-93
2022/10/12 09:55:14;;;;;;;10.45;3.95;;;15.80;99.90;;;;;;4087381;28;20262;-91
2022/10/12 09:57:25;;;;;;;12.95;4.03;;;16.10;99.90;;;;;;4087219;29;20183;-91
2022/10/12 09:59:35;;;;;;;14.77;4.35;;;16.00;99.90;;;;;;4087366;28;20596;-93
2022/10/12 10:01:37;;;;;;;9.57;4.10;;;16.10;99.90;;;;;;4086971;28;20219;-90
2022/10/12 10:03:38;;;;;;;11.88;4.55;;;15.80;99.90;;;;;;4086902;28;20258;-92
2022/10/12 10:05:39;;;;;;;14.90;4.72;;;15.50;99.90;;;;;;4087104;28;20184;-88
2022/10/12 10:07:39;;;;;;;13.02;4.25;;;15.40;99.90;;;;;;4087365;29;20171;-93
2022/10/12 10:09:40;;;;;;;11.18;4.10;;;15.40;99.90;;;;;;4086721;29;20186;-93
2022/10/12 10:11:41;;;;;;;11.40;4.75;;;15.60;99.90;;;;;;4102625;28;20202;-90
2022/10/12 10:13:48;;;;;;;13.13;4.38;;;15.50;99.90;;;;;;4093366;29;20214;-93
2022/10/12 10:16:00;;;;;;;17.13;5.00;;;15.70;99.90;;;;;;4095185;28;20184;-89
2022/10/12 10:18:04;;;;;;;15.43;4.47;;;15.90;99.90;;;;;;4096472;28;20183;-93
2022/10/12 10:20:07;;;;;;;15.00;4.22;;;16.00;99.90;;;;;;4104106;28;20215;-91
2022/10/12 10:22:07;;;;;;;13.45;4.28;;;16.00;99.90;;;;;;4102736;29;20230;-93
2022/10/12 10:24:38;;;;;;;12.23;4.60;;;16.00;99.90;;;;;;4103291;28;20178;-92
2022/10/12 10:27:02;;;;;;;12.93;4.95;;;16.30;99.90;;;;;;4082853;29;20234;-91
2022/10/12 10:29:29;;;;;;;14.77;5.10;;;16.40;99.90;;;;;;4086692;29;20222;-91
2022/10/12 10:31:34;;;;;;;18.45;5.35;;;16.20;99.90;;;;;;4085649;29;20275;-92
2022/10/12 10:33:36;;;;;;;17.00;5.57;;;16.50;99.90;;;;;;4086844;29;20628;-90
2022/10/12 10:35:36;;;;;;;12.38;4.85;;;16.60;99.90;;;;;;4086527;28;20274;-90
2022/10/12 10:37:47;;;;;;;12.65;5.20;;;16.80;99.90;;;;;;4086770;29;20273;-92
2022/10/12 10:39:51;;;;;;;13.05;4.88;;;16.90;99.90;;;;;;4086436;28;20688;-91
2022/10/12 10:41:54;;;;;;;21.17;6.10;;;16.70;99.90;;;;;;4086553;28;20215;-92
2022/10/12 10:43:55;;;;;;;16.20;4.97;;;17.00;99.90;;;;;;4086556;29;20242;-89